sensor_id;sensor_type;location;lat;lon;timestamp;P1;durP1;ratioP1;P2;durP2;ratioP2
76202;SDS011;64985;46.364;17.008;2023-03-11T00:02:29;21.02;;;10.75;;
76202;SDS011;64985;46.364;17.008;2023-03-11T00:05:33;23.38;;;12.13;;
76202;SDS011;64985;46.364;17.008;2023-03-11T00:08:38;16.73;;;10.07;;
76202;SDS011;64985;46.364;17.008;2023-03-11T00:11:42;16.73;;;9.88;;
76202;SDS011;64985;46.364;17.008;2023-03-11T00:14:45;16.90;;;10.45;;
76202;SDS011;64985;46.364;17.008;2023-03-11T00:17:48;17.45;;;10.30;;
76202;SDS011;64985;46.364;17.008;2023-03-11T00:20:53;17.83;;;9.77;;
76202;SDS011;64985;46.364;17.008;2023-03-11T00:23:57;17.05;;;10.02;;
76202;SDS011;64985;46.364;17.008;2023-03-11T00:27:02;18.45;;;10.35;;
76202;SDS011;64985;46.364;17.008;2023-03-11T00:30:05;19.52;;;10.90;;
76202;SDS011;64985;46.364;17.008;2023-03-11T00:33:10;21.85;;;12.70;;
76202;SDS011;64985;46.364;17.008;2023-03-11T00:36:23;22.65;;;13.07;;
76202;SDS011;64985;46.364;17.008;2023-03-11T00:39:33;24.75;;;13.30;;
76202;SDS011;64985;46.364;17.008;2023-03-11T00:42:36;25.38;;;14.50;;
76202;SDS011;64985;46.364;17.008;2023-03-11T00:45:39;21.75;;;12.50;;
76202;SDS011;64985;46.364;17.008;2023-03-11T00:48:43;20.95;;;11.68;;
76202;SDS011;64985;46.364;17.008;2023-03-11T00:51:46;18.63;;;10.85;;
76202;SDS011;64985;46.364;17.008;2023-03-11T00:54:49;19.92;;;10.55;;
76202;SDS011;64985;46.364;17.008;2023-03-11T00:57:52;19.45;;;10.93;;
76202;SDS011;64985;46.364;17.008;2023-03-11T01:00:57;17.92;;;11.15;;
76202;SDS011;64985;46.364;17.008;2023-03-11T01:04:01;19.50;;;10.93;;
76202;SDS011;64985;46.364;17.008;2023-03-11T01:07:04;23.27;;;11.70;;
76202;SDS011;64985;46.364;17.008;2023-03-11T01:10:07;19.63;;;12.00;;
76202;SDS011;64985;46.364;17.008;2023-03-11T01:13:12;24.33;;;12.80;;
76202;SDS011;64985;46.364;17.008;2023-03-11T01:16:14;26.75;;;13.98;;
76202;SDS011;64985;46.364;17.008;2023-03-11T01:19:18;24.40;;;13.18;;
76202;SDS011;64985;46.364;17.008;2023-03-11T01:22:21;24.33;;;13.80;;
76202;SDS011;64985;46.364;17.008;2023-03-11T01:25:24;27.52;;;14.57;;
76202;SDS011;64985;46.364;17.008;2023-03-11T01:28:27;30.02;;;15.90;;
76202;SDS011;64985;46.364;17.008;2023-03-11T01:31:30;35.40;;;18.73;;
76202;SDS011;64985;46.364;17.008;2023-03-11T01:34:33;40.20;;;20.45;;
76202;SDS011;64985;46.364;17.008;2023-03-11T01:37:37;41.03;;;20.85;;
76202;SDS011;64985;46.364;17.008;2023-03-11T01:40:41;36.47;;;18.65;;
76202;SDS011;64985;46.364;17.008;2023-03-11T01:43:48;37.50;;;19.13;;
76202;SDS011;64985;46.364;17.008;2023-03-11T01:50:02;34.90;;;18.17;;
76202;SDS011;64985;46.364;17.008;2023-03-11T01:53:07;40.60;;;18.92;;
76202;SDS011;64985;46.364;17.008;2023-03-11T01:56:10;37.45;;;18.02;;
76202;SDS011;64985;46.364;17.008;2023-03-11T01:59:16;45.65;;;24.17;;
76202;SDS011;64985;46.364;17.008;2023-03-11T02:02:24;49.25;;;26.42;;
76202;SDS011;64985;46.364;17.008;2023-03-11T02:05:43;42.40;;;22.83;;
76202;SDS011;64985;46.364;17.008;2023-03-11T02:08:48;46.95;;;22.77;;
76202;SDS011;64985;46.364;17.008;2023-03-11T02:11:51;47.75;;;24.27;;
76202;SDS011;64985;46.364;17.008;2023-03-11T02:14:55;48.03;;;25.23;;
76202;SDS011;64985;46.364;17.008;2023-03-11T02:18:00;44.47;;;26.98;;
76202;SDS011;64985;46.364;17.008;2023-03-11T02:24:34;50.92;;;27.70;;
76202;SDS011;64985;46.364;17.008;2023-03-11T02:27:46;47.45;;;25.50;;
76202;SDS011;64985;46.364;17.008;2023-03-11T02:30:52;48.95;;;25.70;;
76202;SDS011;64985;46.364;17.008;2023-03-11T02:33:57;43.22;;;23.98;;
76202;SDS011;64985;46.364;17.008;2023-03-11T02:37:04;43.28;;;24.30;;
76202;SDS011;64985;46.364;17.008;2023-03-11T02:40:59;45.90;;;24.83;;
76202;SDS011;64985;46.364;17.008;2023-03-11T02:43:51;42.60;;;23.42;;
76202;SDS011;64985;46.364;17.008;2023-03-11T02:46:55;35.42;;;20.75;;
76202;SDS011;64985;46.364;17.008;2023-03-11T02:49:58;44.42;;;25.15;;
76202;SDS011;64985;46.364;17.008;2023-03-11T02:53:02;44.10;;;23.35;;
76202;SDS011;64985;46.364;17.008;2023-03-11T02:56:06;40.33;;;23.92;;
76202;SDS011;64985;46.364;17.008;2023-03-11T02:59:09;41.33;;;22.50;;
76202;SDS011;64985;46.364;17.008;2023-03-11T03:02:13;33.75;;;19.65;;
76202;SDS011;64985;46.364;17.008;2023-03-11T03:05:16;37.60;;;20.17;;
76202;SDS011;64985;46.364;17.008;2023-03-11T03:08:23;36.55;;;21.17;;
76202;SDS011;64985;46.364;17.008;2023-03-11T03:11:27;35.88;;;20.30;;
76202;SDS011;64985;46.364;17.008;2023-03-11T03:14:30;35.63;;;20.50;;
76202;SDS011;64985;46.364;17.008;2023-03-11T03:17:34;35.53;;;19.95;;
76202;SDS011;64985;46.364;17.008;2023-03-11T03:20:37;35.50;;;19.88;;
76202;SDS011;64985;46.364;17.008;2023-03-11T03:23:40;32.90;;;20.00;;
76202;SDS011;64985;46.364;17.008;2023-03-11T03:26:43;32.42;;;17.98;;
76202;SDS011;64985;46.364;17.008;2023-03-11T03:29:46;24.02;;;15.88;;
76202;SDS011;64985;46.364;17.008;2023-03-11T03:32:49;23.05;;;13.48;;
76202;SDS011;64985;46.364;17.008;2023-03-11T03:35:52;19.73;;;12.57;;
76202;SDS011;64985;46.364;17.008;2023-03-11T03:38:56;21.25;;;12.10;;
76202;SDS011;64985;46.364;17.008;2023-03-11T03:42:01;23.67;;;13.05;;
76202;SDS011;64985;46.364;17.008;2023-03-11T03:45:05;23.45;;;12.15;;
76202;SDS011;64985;46.364;17.008;2023-03-11T03:48:09;20.98;;;11.80;;
76202;SDS011;64985;46.364;17.008;2023-03-11T03:51:12;25.80;;;13.57;;
76202;SDS011;64985;46.364;17.008;2023-03-11T03:54:16;24.45;;;13.68;;
76202;SDS011;64985;46.364;17.008;2023-03-11T03:57:19;22.38;;;12.55;;
76202;SDS011;64985;46.364;17.008;2023-03-11T04:00:23;22.15;;;11.93;;
76202;SDS011;64985;46.364;17.008;2023-03-11T04:03:26;18.65;;;11.90;;
76202;SDS011;64985;46.364;17.008;2023-03-11T04:06:29;21.65;;;11.93;;
76202;SDS011;64985;46.364;17.008;2023-03-11T04:09:32;23.65;;;12.63;;
76202;SDS011;64985;46.364;17.008;2023-03-11T04:12:36;20.75;;;11.80;;
76202;SDS011;64985;46.364;17.008;2023-03-11T04:15:39;19.95;;;12.00;;
76202;SDS011;64985;46.364;17.008;2023-03-11T04:18:43;22.20;;;11.15;;
76202;SDS011;64985;46.364;17.008;2023-03-11T04:21:46;21.88;;;11.25;;
76202;SDS011;64985;46.364;17.008;2023-03-11T04:24:49;24.83;;;11.18;;
76202;SDS011;64985;46.364;17.008;2023-03-11T04:27:52;40.78;;;20.23;;
76202;SDS011;64985;46.364;17.008;2023-03-11T04:30:55;25.65;;;12.43;;
76202;SDS011;64985;46.364;17.008;2023-03-11T04:33:59;22.02;;;12.07;;
76202;SDS011;64985;46.364;17.008;2023-03-11T04:37:02;23.58;;;14.10;;
76202;SDS011;64985;46.364;17.008;2023-03-11T04:40:05;20.95;;;12.52;;
76202;SDS011;64985;46.364;17.008;2023-03-11T04:43:10;15.63;;;9.00;;
76202;SDS011;64985;46.364;17.008;2023-03-11T04:46:14;14.02;;;8.05;;
76202;SDS011;64985;46.364;17.008;2023-03-11T04:49:17;14.63;;;7.65;;
76202;SDS011;64985;46.364;17.008;2023-03-11T04:52:20;21.05;;;12.68;;
76202;SDS011;64985;46.364;17.008;2023-03-11T04:55:24;19.05;;;10.02;;
76202;SDS011;64985;46.364;17.008;2023-03-11T04:58:27;13.20;;;7.10;;
76202;SDS011;64985;46.364;17.008;2023-03-11T05:01:30;13.00;;;7.10;;
76202;SDS011;64985;46.364;17.008;2023-03-11T05:04:33;12.85;;;6.10;;
76202;SDS011;64985;46.364;17.008;2023-03-11T05:07:37;10.27;;;5.22;;
76202;SDS011;64985;46.364;17.008;2023-03-11T05:10:40;10.18;;;5.32;;
76202;SDS011;64985;46.364;17.008;2023-03-11T05:13:44;11.90;;;5.45;;
76202;SDS011;64985;46.364;17.008;2023-03-11T05:16:47;9.27;;;5.32;;
76202;SDS011;64985;46.364;17.008;2023-03-11T05:19:50;7.78;;;4.90;;
76202;SDS011;64985;46.364;17.008;2023-03-11T05:22:55;9.70;;;5.20;;
76202;SDS011;64985;46.364;17.008;2023-03-11T05:25:58;13.00;;;5.80;;
76202;SDS011;64985;46.364;17.008;2023-03-11T05:29:01;12.73;;;6.07;;
76202;SDS011;64985;46.364;17.008;2023-03-11T05:32:04;9.93;;;6.30;;
76202;SDS011;64985;46.364;17.008;2023-03-11T05:35:08;12.13;;;6.22;;
76202;SDS011;64985;46.364;17.008;2023-03-11T05:38:11;10.45;;;6.20;;
76202;SDS011;64985;46.364;17.008;2023-03-11T05:41:15;11.93;;;5.68;;
76202;SDS011;64985;46.364;17.008;2023-03-11T05:44:18;9.77;;;5.72;;
76202;SDS011;64985;46.364;17.008;2023-03-11T05:47:21;10.18;;;6.13;;
76202;SDS011;64985;46.364;17.008;2023-03-11T05:50:24;10.15;;;5.43;;
76202;SDS011;64985;46.364;17.008;2023-03-11T05:53:27;8.23;;;5.18;;
76202;SDS011;64985;46.364;17.008;2023-03-11T05:56:30;10.38;;;4.65;;
76202;SDS011;64985;46.364;17.008;2023-03-11T05:59:33;7.22;;;4.90;;
76202;SDS011;64985;46.364;17.008;2023-03-11T06:02:37;7.50;;;4.50;;
76202;SDS011;64985;46.364;17.008;2023-03-11T06:05:44;6.90;;;4.15;;
76202;SDS011;64985;46.364;17.008;2023-03-11T06:08:48;6.45;;;4.03;;
76202;SDS011;64985;46.364;17.008;2023-03-11T06:11:51;6.85;;;3.72;;
76202;SDS011;64985;46.364;17.008;2023-03-11T06:14:54;7.55;;;3.55;;
76202;SDS011;64985;46.364;17.008;2023-03-11T06:17:57;10.60;;;3.60;;
76202;SDS011;64985;46.364;17.008;2023-03-11T06:21:01;4.80;;;2.83;;
76202;SDS011;64985;46.364;17.008;2023-03-11T06:24:05;4.15;;;2.20;;
76202;SDS011;64985;46.364;17.008;2023-03-11T06:27:08;5.10;;;2.00;;
76202;SDS011;64985;46.364;17.008;2023-03-11T06:30:13;3.10;;;1.63;;
76202;SDS011;64985;46.364;17.008;2023-03-11T06:33:16;2.05;;;1.50;;
76202;SDS011;64985;46.364;17.008;2023-03-11T06:36:19;4.18;;;1.77;;
76202;SDS011;64985;46.364;17.008;2023-03-11T06:39:22;2.65;;;1.40;;
76202;SDS011;64985;46.364;17.008;2023-03-11T06:42:26;4.05;;;1.70;;
76202;SDS011;64985;46.364;17.008;2023-03-11T06:45:29;3.22;;;1.40;;
76202;SDS011;64985;46.364;17.008;2023-03-11T06:48:32;3.03;;;1.70;;
76202;SDS011;64985;46.364;17.008;2023-03-11T06:51:35;2.25;;;1.20;;
76202;SDS011;64985;46.364;17.008;2023-03-11T06:54:38;2.35;;;1.30;;
76202;SDS011;64985;46.364;17.008;2023-03-11T06:57:41;2.58;;;1.25;;
76202;SDS011;64985;46.364;17.008;2023-03-11T07:00:47;2.70;;;1.15;;
76202;SDS011;64985;46.364;17.008;2023-03-11T07:03:51;4.03;;;1.30;;
76202;SDS011;64985;46.364;17.008;2023-03-11T07:06:58;4.88;;;1.33;;
76202;SDS011;64985;46.364;17.008;2023-03-11T07:10:01;2.63;;;1.42;;
76202;SDS011;64985;46.364;17.008;2023-03-11T07:13:04;2.47;;;1.30;;
76202;SDS011;64985;46.364;17.008;2023-03-11T07:16:14;1.92;;;1.40;;
76202;SDS011;64985;46.364;17.008;2023-03-11T07:19:20;3.80;;;1.42;;
76202;SDS011;64985;46.364;17.008;2023-03-11T07:22:23;2.10;;;1.25;;
76202;SDS011;64985;46.364;17.008;2023-03-11T07:25:26;2.67;;;1.13;;
76202;SDS011;64985;46.364;17.008;2023-03-11T07:28:29;5.10;;;1.48;;
76202;SDS011;64985;46.364;17.008;2023-03-11T07:31:33;3.47;;;1.30;;
76202;SDS011;64985;46.364;17.008;2023-03-11T07:34:37;5.70;;;1.50;;
76202;SDS011;64985;46.364;17.008;2023-03-11T07:37:41;3.10;;;1.30;;
76202;SDS011;64985;46.364;17.008;2023-03-11T07:40:44;2.40;;;1.27;;
76202;SDS011;64985;46.364;17.008;2023-03-11T07:43:47;2.38;;;1.30;;
76202;SDS011;64985;46.364;17.008;2023-03-11T07:46:50;2.50;;;1.30;;
76202;SDS011;64985;46.364;17.008;2023-03-11T07:49:53;3.50;;;1.20;;
76202;SDS011;64985;46.364;17.008;2023-03-11T07:52:58;2.15;;;1.20;;
76202;SDS011;64985;46.364;17.008;2023-03-11T07:56:01;2.00;;;1.20;;
76202;SDS011;64985;46.364;17.008;2023-03-11T07:59:05;2.50;;;1.17;;
76202;SDS011;64985;46.364;17.008;2023-03-11T08:02:08;1.48;;;1.05;;
76202;SDS011;64985;46.364;17.008;2023-03-11T08:05:12;2.67;;;1.10;;
76202;SDS011;64985;46.364;17.008;2023-03-11T08:08:15;2.47;;;1.10;;
76202;SDS011;64985;46.364;17.008;2023-03-11T08:11:19;2.63;;;1.33;;
76202;SDS011;64985;46.364;17.008;2023-03-11T08:14:23;2.05;;;0.95;;
76202;SDS011;64985;46.364;17.008;2023-03-11T08:17:27;2.65;;;1.00;;
76202;SDS011;64985;46.364;17.008;2023-03-11T08:20:30;1.55;;;0.93;;
76202;SDS011;64985;46.364;17.008;2023-03-11T08:23:34;2.88;;;1.02;;
76202;SDS011;64985;46.364;17.008;2023-03-11T08:26:37;2.70;;;1.00;;
76202;SDS011;64985;46.364;17.008;2023-03-11T08:29:40;2.47;;;1.00;;
76202;SDS011;64985;46.364;17.008;2023-03-11T08:32:43;1.27;;;0.90;;
76202;SDS011;64985;46.364;17.008;2023-03-11T08:35:46;1.73;;;0.80;;
76202;SDS011;64985;46.364;17.008;2023-03-11T08:38:50;1.00;;;0.85;;
76202;SDS011;64985;46.364;17.008;2023-03-11T08:41:54;2.13;;;1.00;;
76202;SDS011;64985;46.364;17.008;2023-03-11T08:44:57;2.30;;;1.17;;
76202;SDS011;64985;46.364;17.008;2023-03-11T08:48:00;1.40;;;1.10;;
76202;SDS011;64985;46.364;17.008;2023-03-11T08:51:10;3.50;;;1.10;;
76202;SDS011;64985;46.364;17.008;2023-03-11T08:54:14;2.22;;;1.10;;
76202;SDS011;64985;46.364;17.008;2023-03-11T08:57:17;2.17;;;1.10;;
76202;SDS011;64985;46.364;17.008;2023-03-11T09:00:21;1.35;;;0.88;;
76202;SDS011;64985;46.364;17.008;2023-03-11T09:03:24;1.70;;;1.00;;
76202;SDS011;64985;46.364;17.008;2023-03-11T09:06:27;1.48;;;0.70;;
76202;SDS011;64985;46.364;17.008;2023-03-11T09:09:31;1.10;;;0.88;;
76202;SDS011;64985;46.364;17.008;2023-03-11T09:12:34;1.88;;;0.82;;
76202;SDS011;64985;46.364;17.008;2023-03-11T09:15:38;1.75;;;0.80;;
76202;SDS011;64985;46.364;17.008;2023-03-11T09:18:41;3.17;;;0.88;;
76202;SDS011;64985;46.364;17.008;2023-03-11T09:21:44;1.65;;;1.10;;
76202;SDS011;64985;46.364;17.008;2023-03-11T09:24:48;2.40;;;1.80;;
76202;SDS011;64985;46.364;17.008;2023-03-11T09:27:51;1.48;;;0.93;;
76202;SDS011;64985;46.364;17.008;2023-03-11T09:30:54;1.65;;;1.00;;
76202;SDS011;64985;46.364;17.008;2023-03-11T09:33:58;1.80;;;1.10;;
76202;SDS011;64985;46.364;17.008;2023-03-11T09:37:01;1.58;;;1.00;;
76202;SDS011;64985;46.364;17.008;2023-03-11T09:40:04;0.77;;;0.70;;
76202;SDS011;64985;46.364;17.008;2023-03-11T09:46:36;1.65;;;0.77;;
76202;SDS011;64985;46.364;17.008;2023-03-11T09:56:17;0.70;;;0.57;;
76202;SDS011;64985;46.364;17.008;2023-03-11T09:59:29;1.38;;;1.00;;
76202;SDS011;64985;46.364;17.008;2023-03-11T10:02:32;1.02;;;0.70;;
76202;SDS011;64985;46.364;17.008;2023-03-11T10:05:39;4.10;;;0.80;;
76202;SDS011;64985;46.364;17.008;2023-03-11T10:08:54;1.08;;;0.70;;
76202;SDS011;64985;46.364;17.008;2023-03-11T10:18:44;1.02;;;0.82;;
76202;SDS011;64985;46.364;17.008;2023-03-11T10:22:05;1.52;;;0.90;;
76202;SDS011;64985;46.364;17.008;2023-03-11T10:25:15;3.78;;;0.90;;
76202;SDS011;64985;46.364;17.008;2023-03-11T10:28:39;0.95;;;0.70;;
76202;SDS011;64985;46.364;17.008;2023-03-11T10:31:56;1.60;;;0.85;;
76202;SDS011;64985;46.364;17.008;2023-03-11T10:35:22;1.05;;;0.90;;
76202;SDS011;64985;46.364;17.008;2023-03-11T10:38:39;2.70;;;0.80;;
76202;SDS011;64985;46.364;17.008;2023-03-11T10:41:50;1.05;;;0.80;;
76202;SDS011;64985;46.364;17.008;2023-03-11T10:44:59;1.95;;;1.00;;
76202;SDS011;64985;46.364;17.008;2023-03-11T10:48:07;1.35;;;0.98;;
76202;SDS011;64985;46.364;17.008;2023-03-11T10:51:19;1.38;;;0.80;;
76202;SDS011;64985;46.364;17.008;2023-03-11T10:54:37;1.15;;;0.80;;
76202;SDS011;64985;46.364;17.008;2023-03-11T10:57:47;0.60;;;0.50;;
76202;SDS011;64985;46.364;17.008;2023-03-11T11:04:10;6.93;;;1.00;;
76202;SDS011;64985;46.364;17.008;2023-03-11T11:07:35;3.97;;;1.80;;
76202;SDS011;64985;46.364;17.008;2023-03-11T11:10:50;1.65;;;0.70;;
76202;SDS011;64985;46.364;17.008;2023-03-11T11:13:55;1.08;;;0.70;;
76202;SDS011;64985;46.364;17.008;2023-03-11T11:16:59;0.80;;;0.80;;
76202;SDS011;64985;46.364;17.008;2023-03-11T11:20:03;1.70;;;1.23;;
76202;SDS011;64985;46.364;17.008;2023-03-11T11:23:23;2.47;;;1.00;;
76202;SDS011;64985;46.364;17.008;2023-03-11T11:26:38;2.28;;;1.45;;
76202;SDS011;64985;46.364;17.008;2023-03-11T11:29:42;2.72;;;1.27;;
76202;SDS011;64985;46.364;17.008;2023-03-11T11:32:45;2.20;;;0.95;;
76202;SDS011;64985;46.364;17.008;2023-03-11T11:35:50;2.38;;;0.77;;
76202;SDS011;64985;46.364;17.008;2023-03-11T11:38:56;1.95;;;1.27;;
76202;SDS011;64985;46.364;17.008;2023-03-11T11:42:01;1.23;;;0.77;;
76202;SDS011;64985;46.364;17.008;2023-03-11T11:45:09;1.70;;;0.70;;
76202;SDS011;64985;46.364;17.008;2023-03-11T11:51:40;3.08;;;0.50;;
76202;SDS011;64985;46.364;17.008;2023-03-11T11:54:58;0.80;;;0.80;;
76202;SDS011;64985;46.364;17.008;2023-03-11T11:58:06;1.88;;;0.88;;
76202;SDS011;64985;46.364;17.008;2023-03-11T12:01:29;3.78;;;1.40;;
76202;SDS011;64985;46.364;17.008;2023-03-11T12:08:21;1.63;;;0.90;;
76202;SDS011;64985;46.364;17.008;2023-03-11T12:18:00;1.40;;;0.90;;
76202;SDS011;64985;46.364;17.008;2023-03-11T12:28:03;1.00;;;0.60;;
76202;SDS011;64985;46.364;17.008;2023-03-11T12:31:38;1.13;;;0.60;;
76202;SDS011;64985;46.364;17.008;2023-03-11T12:34:43;0.73;;;0.50;;
76202;SDS011;64985;46.364;17.008;2023-03-11T12:38:14;4.18;;;2.83;;
76202;SDS011;64985;46.364;17.008;2023-03-11T12:41:26;12.23;;;7.40;;
76202;SDS011;64985;46.364;17.008;2023-03-11T12:44:41;4.75;;;3.45;;
76202;SDS011;64985;46.364;17.008;2023-03-11T12:47:45;2.28;;;1.25;;
76202;SDS011;64985;46.364;17.008;2023-03-11T12:51:42;14.15;;;9.23;;
76202;SDS011;64985;46.364;17.008;2023-03-11T12:54:40;4.72;;;2.60;;
76202;SDS011;64985;46.364;17.008;2023-03-11T13:00:54;1.58;;;1.20;;
76202;SDS011;64985;46.364;17.008;2023-03-11T13:04:14;4.05;;;2.38;;
76202;SDS011;64985;46.364;17.008;2023-03-11T13:10:49;1.73;;;1.10;;
76202;SDS011;64985;46.364;17.008;2023-03-11T13:14:07;0.63;;;0.60;;
76202;SDS011;64985;46.364;17.008;2023-03-11T13:17:22;2.95;;;1.80;;
76202;SDS011;64985;46.364;17.008;2023-03-11T13:23:44;1.83;;;0.90;;
76202;SDS011;64985;46.364;17.008;2023-03-11T13:30:05;3.83;;;2.58;;
76202;SDS011;64985;46.364;17.008;2023-03-11T13:36:33;2.67;;;1.00;;
76202;SDS011;64985;46.364;17.008;2023-03-11T13:43:21;1.95;;;1.15;;
76202;SDS011;64985;46.364;17.008;2023-03-11T13:46:27;0.95;;;0.70;;
76202;SDS011;64985;46.364;17.008;2023-03-11T13:49:38;0.80;;;0.77;;
76202;SDS011;64985;46.364;17.008;2023-03-11T13:53:08;0.82;;;0.63;;
76202;SDS011;64985;46.364;17.008;2023-03-11T13:56:22;1.00;;;0.90;;
76202;SDS011;64985;46.364;17.008;2023-03-11T13:59:33;1.42;;;0.80;;
76202;SDS011;64985;46.364;17.008;2023-03-11T14:02:37;1.95;;;1.40;;
76202;SDS011;64985;46.364;17.008;2023-03-11T14:05:54;4.03;;;1.73;;
76202;SDS011;64985;46.364;17.008;2023-03-11T14:09:14;2.05;;;1.08;;
76202;SDS011;64985;46.364;17.008;2023-03-11T14:12:20;5.97;;;3.15;;
76202;SDS011;64985;46.364;17.008;2023-03-11T14:15:24;2.47;;;1.13;;
76202;SDS011;64985;46.364;17.008;2023-03-11T14:21:42;3.03;;;0.82;;
76202;SDS011;64985;46.364;17.008;2023-03-11T14:24:48;1.08;;;0.70;;
76202;SDS011;64985;46.364;17.008;2023-03-11T14:27:58;0.90;;;0.80;;
76202;SDS011;64985;46.364;17.008;2023-03-11T14:31:04;2.03;;;0.73;;
76202;SDS011;64985;46.364;17.008;2023-03-11T14:34:19;0.73;;;0.70;;
76202;SDS011;64985;46.364;17.008;2023-03-11T14:40:35;1.33;;;0.88;;
76202;SDS011;64985;46.364;17.008;2023-03-11T14:43:40;1.08;;;0.65;;
76202;SDS011;64985;46.364;17.008;2023-03-11T14:46:48;1.10;;;0.68;;
76202;SDS011;64985;46.364;17.008;2023-03-11T14:49:53;1.33;;;0.90;;
76202;SDS011;64985;46.364;17.008;2023-03-11T14:52:57;0.73;;;0.70;;
76202;SDS011;64985;46.364;17.008;2023-03-11T14:56:10;0.80;;;0.70;;
76202;SDS011;64985;46.364;17.008;2023-03-11T14:59:24;1.33;;;0.80;;
76202;SDS011;64985;46.364;17.008;2023-03-11T15:02:38;1.27;;;0.80;;
76202;SDS011;64985;46.364;17.008;2023-03-11T15:05:55;1.15;;;0.70;;
76202;SDS011;64985;46.364;17.008;2023-03-11T15:09:18;0.77;;;0.65;;
76202;SDS011;64985;46.364;17.008;2023-03-11T15:12:32;1.55;;;0.70;;
76202;SDS011;64985;46.364;17.008;2023-03-11T15:15:37;0.80;;;0.70;;
76202;SDS011;64985;46.364;17.008;2023-03-11T15:18:40;1.40;;;0.70;;
76202;SDS011;64985;46.364;17.008;2023-03-11T15:21:44;1.27;;;1.00;;
76202;SDS011;64985;46.364;17.008;2023-03-11T15:24:54;1.08;;;0.88;;
76202;SDS011;64985;46.364;17.008;2023-03-11T15:31:27;3.47;;;1.92;;
76202;SDS011;64985;46.364;17.008;2023-03-11T15:34:33;5.55;;;4.10;;
76202;SDS011;64985;46.364;17.008;2023-03-11T15:37:37;1.25;;;0.77;;
76202;SDS011;64985;46.364;17.008;2023-03-11T15:40:48;2.13;;;0.90;;
76202;SDS011;64985;46.364;17.008;2023-03-11T15:43:59;1.95;;;0.80;;
76202;SDS011;64985;46.364;17.008;2023-03-11T15:47:09;2.15;;;1.00;;
76202;SDS011;64985;46.364;17.008;2023-03-11T15:50:17;1.98;;;1.10;;
76202;SDS011;64985;46.364;17.008;2023-03-11T15:53:51;5.75;;;2.15;;
76202;SDS011;64985;46.364;17.008;2023-03-11T15:56:56;1.98;;;1.30;;
76202;SDS011;64985;46.364;17.008;2023-03-11T16:00:04;3.10;;;1.05;;
76202;SDS011;64985;46.364;17.008;2023-03-11T16:03:17;2.75;;;0.90;;
76202;SDS011;64985;46.364;17.008;2023-03-11T16:06:21;2.30;;;1.00;;
76202;SDS011;64985;46.364;17.008;2023-03-11T16:09:25;1.55;;;0.73;;
76202;SDS011;64985;46.364;17.008;2023-03-11T16:12:29;1.90;;;1.00;;
76202;SDS011;64985;46.364;17.008;2023-03-11T16:15:33;2.45;;;0.90;;
76202;SDS011;64985;46.364;17.008;2023-03-11T16:18:44;1.05;;;0.80;;
76202;SDS011;64985;46.364;17.008;2023-03-11T16:21:48;2.50;;;0.80;;
76202;SDS011;64985;46.364;17.008;2023-03-11T16:24:52;1.75;;;0.80;;
76202;SDS011;64985;46.364;17.008;2023-03-11T16:27:56;2.95;;;1.00;;
76202;SDS011;64985;46.364;17.008;2023-03-11T16:31:00;2.95;;;1.05;;
76202;SDS011;64985;46.364;17.008;2023-03-11T16:34:05;2.83;;;0.85;;
76202;SDS011;64985;46.364;17.008;2023-03-11T16:37:09;2.40;;;1.00;;
76202;SDS011;64985;46.364;17.008;2023-03-11T16:40:21;1.77;;;0.90;;
76202;SDS011;64985;46.364;17.008;2023-03-11T16:43:27;2.45;;;1.08;;
76202;SDS011;64985;46.364;17.008;2023-03-11T16:46:31;1.90;;;0.98;;
76202;SDS011;64985;46.364;17.008;2023-03-11T16:49:35;3.75;;;2.05;;
76202;SDS011;64985;46.364;17.008;2023-03-11T16:52:39;5.88;;;1.80;;
76202;SDS011;64985;46.364;17.008;2023-03-11T16:55:43;3.25;;;2.00;;
76202;SDS011;64985;46.364;17.008;2023-03-11T16:58:47;1.80;;;1.10;;
76202;SDS011;64985;46.364;17.008;2023-03-11T17:01:50;1.67;;;1.10;;
76202;SDS011;64985;46.364;17.008;2023-03-11T17:04:55;2.00;;;1.08;;
76202;SDS011;64985;46.364;17.008;2023-03-11T17:07:59;1.83;;;1.15;;
76202;SDS011;64985;46.364;17.008;2023-03-11T17:11:12;2.13;;;1.25;;
76202;SDS011;64985;46.364;17.008;2023-03-11T17:14:34;0.73;;;0.73;;
76202;SDS011;64985;46.364;17.008;2023-03-11T17:17:38;3.50;;;1.70;;
76202;SDS011;64985;46.364;17.008;2023-03-11T17:20:41;4.82;;;2.60;;
76202;SDS011;64985;46.364;17.008;2023-03-11T17:23:45;5.50;;;3.40;;
76202;SDS011;64985;46.364;17.008;2023-03-11T17:26:49;2.97;;;1.80;;
76202;SDS011;64985;46.364;17.008;2023-03-11T17:29:53;5.47;;;2.85;;
76202;SDS011;64985;46.364;17.008;2023-03-11T17:32:57;5.00;;;2.63;;
76202;SDS011;64985;46.364;17.008;2023-03-11T17:36:05;6.10;;;3.30;;
76202;SDS011;64985;46.364;17.008;2023-03-11T17:39:11;6.05;;;3.45;;
76202;SDS011;64985;46.364;17.008;2023-03-11T17:42:16;4.13;;;2.47;;
76202;SDS011;64985;46.364;17.008;2023-03-11T17:45:20;10.30;;;4.90;;
76202;SDS011;64985;46.364;17.008;2023-03-11T17:48:24;4.25;;;1.55;;
76202;SDS011;64985;46.364;17.008;2023-03-11T17:51:29;3.92;;;2.60;;
76202;SDS011;64985;46.364;17.008;2023-03-11T17:54:34;6.05;;;3.38;;
76202;SDS011;64985;46.364;17.008;2023-03-11T17:57:39;8.32;;;4.80;;
76202;SDS011;64985;46.364;17.008;2023-03-11T18:00:47;6.63;;;3.20;;
76202;SDS011;64985;46.364;17.008;2023-03-11T18:03:51;5.47;;;1.92;;
76202;SDS011;64985;46.364;17.008;2023-03-11T18:06:55;5.82;;;2.45;;
76202;SDS011;64985;46.364;17.008;2023-03-11T18:09:59;5.97;;;2.55;;
76202;SDS011;64985;46.364;17.008;2023-03-11T18:13:03;6.55;;;2.80;;
76202;SDS011;64985;46.364;17.008;2023-03-11T18:16:07;4.88;;;2.60;;
76202;SDS011;64985;46.364;17.008;2023-03-11T18:19:16;11.20;;;3.00;;
76202;SDS011;64985;46.364;17.008;2023-03-11T18:22:19;6.50;;;2.72;;
76202;SDS011;64985;46.364;17.008;2023-03-11T18:25:24;4.95;;;2.28;;
76202;SDS011;64985;46.364;17.008;2023-03-11T18:28:29;5.18;;;1.50;;
76202;SDS011;64985;46.364;17.008;2023-03-11T18:31:33;4.07;;;1.60;;
76202;SDS011;64985;46.364;17.008;2023-03-11T18:34:37;5.55;;;1.88;;
76202;SDS011;64985;46.364;17.008;2023-03-11T18:37:41;4.05;;;1.75;;
76202;SDS011;64985;46.364;17.008;2023-03-11T18:40:45;4.88;;;2.13;;
76202;SDS011;64985;46.364;17.008;2023-03-11T18:43:53;5.72;;;1.98;;
76202;SDS011;64985;46.364;17.008;2023-03-11T18:47:01;5.75;;;1.83;;
76202;SDS011;64985;46.364;17.008;2023-03-11T18:50:05;4.30;;;1.90;;
76202;SDS011;64985;46.364;17.008;2023-03-11T18:53:10;5.78;;;2.33;;
76202;SDS011;64985;46.364;17.008;2023-03-11T18:56:15;3.42;;;1.60;;
76202;SDS011;64985;46.364;17.008;2023-03-11T18:59:20;4.97;;;2.38;;
76202;SDS011;64985;46.364;17.008;2023-03-11T19:02:24;11.80;;;4.07;;
76202;SDS011;64985;46.364;17.008;2023-03-11T19:05:30;10.18;;;5.50;;
76202;SDS011;64985;46.364;17.008;2023-03-11T19:08:34;5.07;;;2.10;;
76202;SDS011;64985;46.364;17.008;2023-03-11T19:11:38;8.48;;;3.63;;
76202;SDS011;64985;46.364;17.008;2023-03-11T19:14:42;7.30;;;2.50;;
76202;SDS011;64985;46.364;17.008;2023-03-11T19:17:45;5.22;;;2.83;;
76202;SDS011;64985;46.364;17.008;2023-03-11T19:21:07;6.53;;;2.10;;
76202;SDS011;64985;46.364;17.008;2023-03-11T19:24:12;6.95;;;2.42;;
76202;SDS011;64985;46.364;17.008;2023-03-11T19:27:16;3.40;;;2.00;;
76202;SDS011;64985;46.364;17.008;2023-03-11T19:30:20;5.53;;;1.98;;
76202;SDS011;64985;46.364;17.008;2023-03-11T19:33:23;7.28;;;2.10;;